sensor_id;sensor_type;location;lat;lon;timestamp;P1;durP1;ratioP1;P2;durP2;ratioP2
2173;SDS011;1093;51.424;11.764;2022-07-29T00:00:51;9.50;;;2.47;;
2173;SDS011;1093;51.424;11.764;2022-07-29T00:03:18;11.10;;;2.60;;
2173;SDS011;1093;51.424;11.764;2022-07-29T00:05:45;4.00;;;2.73;;
2173;SDS011;1093;51.424;11.764;2022-07-29T00:08:12;5.57;;;2.57;;
2173;SDS011;1093;51.424;11.764;2022-07-29T00:10:40;3.20;;;2.30;;
2173;SDS011;1093;51.424;11.764;2022-07-29T00:13:07;10.60;;;2.47;;
2173;SDS011;1093;51.424;11.764;2022-07-29T00:15:34;8.50;;;3.03;;
2173;SDS011;1093;51.424;11.764;2022-07-29T00:18:03;5.63;;;2.87;;
2173;SDS011;1093;51.424;11.764;2022-07-29T00:20:29;9.37;;;2.77;;
2173;SDS011;1093;51.424;11.764;2022-07-29T00:22:57;10.50;;;2.97;;
2173;SDS011;1093;51.424;11.764;2022-07-29T00:25:24;5.30;;;2.23;;
2173;SDS011;1093;51.424;11.764;2022-07-29T00:27:50;9.03;;;3.60;;
2173;SDS011;1093;51.424;11.764;2022-07-29T00:30:17;5.30;;;2.73;;
2173;SDS011;1093;51.424;11.764;2022-07-29T00:32:44;6.50;;;2.47;;
2173;SDS011;1093;51.424;11.764;2022-07-29T00:35:13;6.23;;;3.47;;
2173;SDS011;1093;51.424;11.764;2022-07-29T00:37:57;10.40;;;2.83;;
2173;SDS011;1093;51.424;11.764;2022-07-29T00:40:24;7.50;;;2.70;;
2173;SDS011;1093;51.424;11.764;2022-07-29T00:42:51;4.20;;;2.60;;
2173;SDS011;1093;51.424;11.764;2022-07-29T00:45:18;8.40;;;2.47;;
2173;SDS011;1093;51.424;11.764;2022-07-29T00:47:46;4.00;;;2.10;;
2173;SDS011;1093;51.424;11.764;2022-07-29T00:50:15;10.33;;;2.83;;
2173;SDS011;1093;51.424;11.764;2022-07-29T00:52:42;4.30;;;2.43;;
2173;SDS011;1093;51.424;11.764;2022-07-29T00:55:10;4.00;;;2.27;;
2173;SDS011;1093;51.424;11.764;2022-07-29T00:57:37;3.77;;;2.00;;
2173;SDS011;1093;51.424;11.764;2022-07-29T01:00:07;5.43;;;2.50;;
2173;SDS011;1093;51.424;11.764;2022-07-29T01:02:36;3.10;;;2.40;;
2173;SDS011;1093;51.424;11.764;2022-07-29T01:05:02;4.97;;;2.30;;
2173;SDS011;1093;51.424;11.764;2022-07-29T01:07:32;6.10;;;2.17;;
2173;SDS011;1093;51.424;11.764;2022-07-29T01:10:01;6.10;;;2.30;;
2173;SDS011;1093;51.424;11.764;2022-07-29T01:12:29;5.97;;;2.70;;
2173;SDS011;1093;51.424;11.764;2022-07-29T01:14:59;3.43;;;2.40;;
2173;SDS011;1093;51.424;11.764;2022-07-29T01:17:28;7.97;;;2.53;;
2173;SDS011;1093;51.424;11.764;2022-07-29T01:20:02;3.70;;;2.40;;
2173;SDS011;1093;51.424;11.764;2022-07-29T01:22:41;5.07;;;2.13;;
2173;SDS011;1093;51.424;11.764;2022-07-29T01:25:40;6.73;;;2.93;;
2173;SDS011;1093;51.424;11.764;2022-07-29T01:28:18;8.67;;;2.83;;
2173;SDS011;1093;51.424;11.764;2022-07-29T01:31:14;3.00;;;2.13;;
2173;SDS011;1093;51.424;11.764;2022-07-29T01:33:43;5.03;;;2.80;;
2173;SDS011;1093;51.424;11.764;2022-07-29T01:36:16;4.73;;;2.23;;
2173;SDS011;1093;51.424;11.764;2022-07-29T01:39:04;2.27;;;2.07;;
2173;SDS011;1093;51.424;11.764;2022-07-29T01:41:35;10.07;;;2.57;;
2173;SDS011;1093;51.424;11.764;2022-07-29T01:44:10;3.00;;;2.60;;
2173;SDS011;1093;51.424;11.764;2022-07-29T01:46:41;7.53;;;2.90;;
2173;SDS011;1093;51.424;11.764;2022-07-29T01:49:16;6.73;;;2.40;;
2173;SDS011;1093;51.424;11.764;2022-07-29T01:51:47;8.60;;;2.53;;
2173;SDS011;1093;51.424;11.764;2022-07-29T01:54:18;2.40;;;1.90;;
2173;SDS011;1093;51.424;11.764;2022-07-29T01:56:51;9.80;;;3.00;;
2173;SDS011;1093;51.424;11.764;2022-07-29T01:59:21;6.90;;;2.40;;
2173;SDS011;1093;51.424;11.764;2022-07-29T02:01:49;3.13;;;2.83;;
2173;SDS011;1093;51.424;11.764;2022-07-29T02:04:19;4.77;;;2.80;;
2173;SDS011;1093;51.424;11.764;2022-07-29T02:06:47;8.90;;;3.00;;
2173;SDS011;1093;51.424;11.764;2022-07-29T02:09:16;6.90;;;3.20;;
2173;SDS011;1093;51.424;11.764;2022-07-29T02:11:47;7.70;;;3.13;;
2173;SDS011;1093;51.424;11.764;2022-07-29T02:14:17;8.10;;;2.17;;
2173;SDS011;1093;51.424;11.764;2022-07-29T02:16:46;8.67;;;3.03;;
2173;SDS011;1093;51.424;11.764;2022-07-29T02:19:14;3.87;;;2.37;;
2173;SDS011;1093;51.424;11.764;2022-07-29T02:21:43;4.77;;;2.70;;
2173;SDS011;1093;51.424;11.764;2022-07-29T02:24:11;10.33;;;2.40;;
2173;SDS011;1093;51.424;11.764;2022-07-29T02:26:40;4.40;;;2.93;;
2173;SDS011;1093;51.424;11.764;2022-07-29T02:29:09;6.40;;;3.40;;
2173;SDS011;1093;51.424;11.764;2022-07-29T02:31:38;5.20;;;2.53;;
2173;SDS011;1093;51.424;11.764;2022-07-29T02:34:10;5.57;;;3.03;;
2173;SDS011;1093;51.424;11.764;2022-07-29T02:36:38;6.93;;;3.30;;
2173;SDS011;1093;51.424;11.764;2022-07-29T02:39:06;12.07;;;2.90;;
2173;SDS011;1093;51.424;11.764;2022-07-29T02:41:37;3.53;;;2.70;;
2173;SDS011;1093;51.424;11.764;2022-07-29T02:44:09;4.50;;;2.80;;
2173;SDS011;1093;51.424;11.764;2022-07-29T02:46:38;3.00;;;2.23;;
2173;SDS011;1093;51.424;11.764;2022-07-29T02:49:13;4.03;;;2.80;;
2173;SDS011;1093;51.424;11.764;2022-07-29T02:51:45;5.63;;;2.67;;
2173;SDS011;1093;51.424;11.764;2022-07-29T02:54:21;7.77;;;3.03;;
2173;SDS011;1093;51.424;11.764;2022-07-29T02:56:52;6.03;;;2.97;;
2173;SDS011;1093;51.424;11.764;2022-07-29T02:59:22;5.90;;;3.10;;
2173;SDS011;1093;51.424;11.764;2022-07-29T03:01:52;6.23;;;3.60;;
2173;SDS011;1093;51.424;11.764;2022-07-29T03:04:21;5.37;;;2.60;;
2173;SDS011;1093;51.424;11.764;2022-07-29T03:06:50;5.27;;;2.63;;
2173;SDS011;1093;51.424;11.764;2022-07-29T03:09:18;5.23;;;3.13;;
2173;SDS011;1093;51.424;11.764;2022-07-29T03:11:46;3.30;;;2.80;;
2173;SDS011;1093;51.424;11.764;2022-07-29T03:14:13;3.80;;;3.10;;
2173;SDS011;1093;51.424;11.764;2022-07-29T03:16:41;6.70;;;2.93;;
2173;SDS011;1093;51.424;11.764;2022-07-29T03:19:08;9.20;;;2.67;;
2173;SDS011;1093;51.424;11.764;2022-07-29T03:21:37;7.00;;;2.90;;
2173;SDS011;1093;51.424;11.764;2022-07-29T03:24:04;6.17;;;2.73;;
2173;SDS011;1093;51.424;11.764;2022-07-29T03:26:31;7.60;;;2.70;;
2173;SDS011;1093;51.424;11.764;2022-07-29T03:28:58;7.90;;;3.10;;
2173;SDS011;1093;51.424;11.764;2022-07-29T03:31:24;5.27;;;2.67;;
2173;SDS011;1093;51.424;11.764;2022-07-29T03:33:51;2.77;;;2.47;;
2173;SDS011;1093;51.424;11.764;2022-07-29T03:36:18;4.83;;;2.83;;
2173;SDS011;1093;51.424;11.764;2022-07-29T03:38:46;5.53;;;3.40;;
2173;SDS011;1093;51.424;11.764;2022-07-29T03:41:14;5.40;;;2.93;;
2173;SDS011;1093;51.424;11.764;2022-07-29T03:43:42;5.03;;;2.80;;
2173;SDS011;1093;51.424;11.764;2022-07-29T03:46:10;9.30;;;3.60;;
2173;SDS011;1093;51.424;11.764;2022-07-29T03:48:41;4.20;;;3.20;;
2173;SDS011;1093;51.424;11.764;2022-07-29T03:51:12;4.00;;;2.93;;
2173;SDS011;1093;51.424;11.764;2022-07-29T03:53:39;2.90;;;2.40;;
2173;SDS011;1093;51.424;11.764;2022-07-29T03:56:08;7.50;;;3.50;;
2173;SDS011;1093;51.424;11.764;2022-07-29T03:58:38;6.83;;;3.20;;
2173;SDS011;1093;51.424;11.764;2022-07-29T04:01:05;5.40;;;3.47;;
2173;SDS011;1093;51.424;11.764;2022-07-29T04:03:32;6.93;;;3.10;;
2173;SDS011;1093;51.424;11.764;2022-07-29T04:06:01;2.90;;;2.70;;
2173;SDS011;1093;51.424;11.764;2022-07-29T04:08:30;3.27;;;3.00;;
2173;SDS011;1093;51.424;11.764;2022-07-29T04:10:58;6.10;;;3.30;;
2173;SDS011;1093;51.424;11.764;2022-07-29T04:13:26;8.23;;;3.57;;
2173;SDS011;1093;51.424;11.764;2022-07-29T04:15:53;5.00;;;3.30;;
2173;SDS011;1093;51.424;11.764;2022-07-29T04:18:20;5.80;;;3.70;;
2173;SDS011;1093;51.424;11.764;2022-07-29T04:20:46;3.77;;;3.37;;
2173;SDS011;1093;51.424;11.764;2022-07-29T04:23:13;4.10;;;3.20;;
2173;SDS011;1093;51.424;11.764;2022-07-29T04:25:40;7.30;;;3.73;;
2173;SDS011;1093;51.424;11.764;2022-07-29T04:28:08;8.37;;;2.77;;
2173;SDS011;1093;51.424;11.764;2022-07-29T04:30:37;5.40;;;3.87;;
2173;SDS011;1093;51.424;11.764;2022-07-29T04:33:05;8.70;;;3.30;;
2173;SDS011;1093;51.424;11.764;2022-07-29T04:35:33;7.27;;;2.80;;
2173;SDS011;1093;51.424;11.764;2022-07-29T04:38:01;5.37;;;2.97;;
2173;SDS011;1093;51.424;11.764;2022-07-29T04:40:28;5.07;;;2.93;;
2173;SDS011;1093;51.424;11.764;2022-07-29T04:42:55;3.60;;;3.30;;
2173;SDS011;1093;51.424;11.764;2022-07-29T04:45:21;6.20;;;2.87;;
2173;SDS011;1093;51.424;11.764;2022-07-29T04:47:50;7.10;;;3.13;;
2173;SDS011;1093;51.424;11.764;2022-07-29T04:50:17;7.23;;;3.20;;
2173;SDS011;1093;51.424;11.764;2022-07-29T04:52:43;4.13;;;3.00;;
2173;SDS011;1093;51.424;11.764;2022-07-29T04:55:10;8.00;;;3.63;;
2173;SDS011;1093;51.424;11.764;2022-07-29T04:57:37;3.80;;;3.40;;
2173;SDS011;1093;51.424;11.764;2022-07-29T05:00:04;8.30;;;3.43;;
2173;SDS011;1093;51.424;11.764;2022-07-29T05:02:32;5.60;;;3.60;;
2173;SDS011;1093;51.424;11.764;2022-07-29T05:05:00;4.50;;;3.20;;
2173;SDS011;1093;51.424;11.764;2022-07-29T05:07:27;6.73;;;3.00;;
2173;SDS011;1093;51.424;11.764;2022-07-29T05:09:54;4.70;;;3.00;;
2173;SDS011;1093;51.424;11.764;2022-07-29T05:12:21;4.10;;;3.00;;
2173;SDS011;1093;51.424;11.764;2022-07-29T05:14:48;5.10;;;3.00;;
2173;SDS011;1093;51.424;11.764;2022-07-29T05:17:15;6.23;;;3.20;;
2173;SDS011;1093;51.424;11.764;2022-07-29T05:19:42;12.53;;;3.67;;
2173;SDS011;1093;51.424;11.764;2022-07-29T05:22:10;8.17;;;3.57;;
2173;SDS011;1093;51.424;11.764;2022-07-29T05:24:37;7.43;;;3.27;;
2173;SDS011;1093;51.424;11.764;2022-07-29T05:27:03;11.47;;;4.17;;
2173;SDS011;1093;51.424;11.764;2022-07-29T05:29:30;8.50;;;3.40;;
2173;SDS011;1093;51.424;11.764;2022-07-29T05:31:57;10.43;;;3.70;;
2173;SDS011;1093;51.424;11.764;2022-07-29T05:34:23;10.10;;;3.77;;
2173;SDS011;1093;51.424;11.764;2022-07-29T05:36:51;5.57;;;3.13;;
2173;SDS011;1093;51.424;11.764;2022-07-29T05:39:19;8.83;;;3.67;;
2173;SDS011;1093;51.424;11.764;2022-07-29T05:41:46;12.13;;;3.30;;
2173;SDS011;1093;51.424;11.764;2022-07-29T05:44:13;4.37;;;3.30;;
2173;SDS011;1093;51.424;11.764;2022-07-29T05:46:40;4.30;;;3.60;;
2173;SDS011;1093;51.424;11.764;2022-07-29T05:49:07;4.60;;;4.03;;
2173;SDS011;1093;51.424;11.764;2022-07-29T05:51:34;8.00;;;3.47;;
2173;SDS011;1093;51.424;11.764;2022-07-29T05:54:01;3.70;;;2.80;;
2173;SDS011;1093;51.424;11.764;2022-07-29T05:56:29;10.23;;;3.77;;
2173;SDS011;1093;51.424;11.764;2022-07-29T05:58:56;3.60;;;3.30;;
2173;SDS011;1093;51.424;11.764;2022-07-29T06:01:23;4.63;;;2.80;;
2173;SDS011;1093;51.424;11.764;2022-07-29T06:03:50;4.67;;;3.00;;
2173;SDS011;1093;51.424;11.764;2022-07-29T06:06:16;4.53;;;3.17;;
2173;SDS011;1093;51.424;11.764;2022-07-29T06:08:43;4.93;;;3.00;;
2173;SDS011;1093;51.424;11.764;2022-07-29T06:11:10;4.87;;;3.20;;
2173;SDS011;1093;51.424;11.764;2022-07-29T06:13:38;9.80;;;3.60;;
2173;SDS011;1093;51.424;11.764;2022-07-29T06:16:05;6.17;;;3.80;;
2173;SDS011;1093;51.424;11.764;2022-07-29T06:18:31;7.03;;;3.90;;
2173;SDS011;1093;51.424;11.764;2022-07-29T06:20:58;7.00;;;3.20;;
2173;SDS011;1093;51.424;11.764;2022-07-29T06:23:25;10.90;;;3.73;;
2173;SDS011;1093;51.424;11.764;2022-07-29T06:25:51;10.77;;;3.20;;
2173;SDS011;1093;51.424;11.764;2022-07-29T06:28:18;6.73;;;2.80;;
2173;SDS011;1093;51.424;11.764;2022-07-29T06:30:47;11.83;;;3.60;;
2173;SDS011;1093;51.424;11.764;2022-07-29T06:33:16;5.37;;;3.03;;
2173;SDS011;1093;51.424;11.764;2022-07-29T06:35:43;5.97;;;3.50;;
2173;SDS011;1093;51.424;11.764;2022-07-29T06:38:12;12.00;;;3.93;;
2173;SDS011;1093;51.424;11.764;2022-07-29T06:40:40;3.63;;;3.33;;
2173;SDS011;1093;51.424;11.764;2022-07-29T06:43:27;7.57;;;3.87;;
2173;SDS011;1093;51.424;11.764;2022-07-29T06:45:59;5.47;;;3.20;;
2173;SDS011;1093;51.424;11.764;2022-07-29T06:48:26;3.57;;;3.07;;
2173;SDS011;1093;51.424;11.764;2022-07-29T06:50:53;5.80;;;3.77;;
2173;SDS011;1093;51.424;11.764;2022-07-29T06:53:20;8.17;;;4.13;;
2173;SDS011;1093;51.424;11.764;2022-07-29T06:55:47;5.13;;;2.63;;
2173;SDS011;1093;51.424;11.764;2022-07-29T06:58:14;7.40;;;3.50;;
2173;SDS011;1093;51.424;11.764;2022-07-29T07:00:42;5.50;;;3.17;;
2173;SDS011;1093;51.424;11.764;2022-07-29T07:03:11;6.17;;;3.37;;
2173;SDS011;1093;51.424;11.764;2022-07-29T07:05:38;6.53;;;4.13;;
2173;SDS011;1093;51.424;11.764;2022-07-29T07:08:05;8.27;;;3.70;;
2173;SDS011;1093;51.424;11.764;2022-07-29T07:10:31;4.33;;;3.33;;
2173;SDS011;1093;51.424;11.764;2022-07-29T07:12:58;6.63;;;3.37;;
2173;SDS011;1093;51.424;11.764;2022-07-29T07:15:25;7.57;;;3.87;;
2173;SDS011;1093;51.424;11.764;2022-07-29T07:17:52;7.33;;;3.40;;
2173;SDS011;1093;51.424;11.764;2022-07-29T07:20:20;5.20;;;3.57;;
2173;SDS011;1093;51.424;11.764;2022-07-29T07:22:47;11.10;;;3.30;;
2173;SDS011;1093;51.424;11.764;2022-07-29T07:25:14;9.73;;;3.40;;
2173;SDS011;1093;51.424;11.764;2022-07-29T07:27:42;10.00;;;4.13;;
2173;SDS011;1093;51.424;11.764;2022-07-29T07:30:09;4.63;;;3.20;;
2173;SDS011;1093;51.424;11.764;2022-07-29T07:32:36;5.90;;;3.70;;
2173;SDS011;1093;51.424;11.764;2022-07-29T07:35:03;6.37;;;3.27;;
2173;SDS011;1093;51.424;11.764;2022-07-29T07:37:33;5.30;;;3.60;;
2173;SDS011;1093;51.424;11.764;2022-07-29T07:39:59;7.90;;;3.70;;
2173;SDS011;1093;51.424;11.764;2022-07-29T07:42:27;9.57;;;3.90;;
2173;SDS011;1093;51.424;11.764;2022-07-29T07:44:53;4.03;;;3.50;;
2173;SDS011;1093;51.424;11.764;2022-07-29T07:47:20;10.10;;;3.57;;
2173;SDS011;1093;51.424;11.764;2022-07-29T07:49:48;12.07;;;4.10;;
2173;SDS011;1093;51.424;11.764;2022-07-29T07:52:16;9.13;;;4.40;;
2173;SDS011;1093;51.424;11.764;2022-07-29T07:54:45;4.47;;;3.17;;
2173;SDS011;1093;51.424;11.764;2022-07-29T07:57:12;10.30;;;3.33;;
2173;SDS011;1093;51.424;11.764;2022-07-29T07:59:39;5.17;;;4.40;;
2173;SDS011;1093;51.424;11.764;2022-07-29T08:02:06;8.47;;;3.97;;
2173;SDS011;1093;51.424;11.764;2022-07-29T08:04:33;5.50;;;4.37;;
2173;SDS011;1093;51.424;11.764;2022-07-29T08:07:00;5.77;;;3.53;;
2173;SDS011;1093;51.424;11.764;2022-07-29T08:09:28;10.00;;;5.40;;
2173;SDS011;1093;51.424;11.764;2022-07-29T08:11:57;8.63;;;5.27;;
2173;SDS011;1093;51.424;11.764;2022-07-29T08:14:24;9.40;;;4.70;;
2173;SDS011;1093;51.424;11.764;2022-07-29T08:16:51;9.33;;;4.70;;
2173;SDS011;1093;51.424;11.764;2022-07-29T08:19:18;8.90;;;6.10;;
2173;SDS011;1093;51.424;11.764;2022-07-29T08:21:45;12.03;;;6.40;;
2173;SDS011;1093;51.424;11.764;2022-07-29T08:24:12;6.93;;;6.23;;
2173;SDS011;1093;51.424;11.764;2022-07-29T08:26:58;10.50;;;6.90;;
2173;SDS011;1093;51.424;11.764;2022-07-29T08:29:24;11.60;;;7.17;;
2173;SDS011;1093;51.424;11.764;2022-07-29T08:31:51;12.20;;;9.70;;
2173;SDS011;1093;51.424;11.764;2022-07-29T08:34:18;16.80;;;9.57;;
2173;SDS011;1093;51.424;11.764;2022-07-29T08:36:45;14.57;;;8.40;;
2173;SDS011;1093;51.424;11.764;2022-07-29T08:39:12;15.30;;;8.03;;
2173;SDS011;1093;51.424;11.764;2022-07-29T08:41:38;21.60;;;9.00;;
2173;SDS011;1093;51.424;11.764;2022-07-29T08:44:07;15.50;;;9.33;;
2173;SDS011;1093;51.424;11.764;2022-07-29T08:46:36;11.50;;;8.30;;
2173;SDS011;1093;51.424;11.764;2022-07-29T08:49:04;12.37;;;9.03;;
2173;SDS011;1093;51.424;11.764;2022-07-29T08:51:30;15.23;;;8.43;;
2173;SDS011;1093;51.424;11.764;2022-07-29T08:54:00;15.60;;;10.10;;
2173;SDS011;1093;51.424;11.764;2022-07-29T08:56:27;20.67;;;9.63;;
2173;SDS011;1093;51.424;11.764;2022-07-29T08:58:55;13.30;;;8.63;;
2173;SDS011;1093;51.424;11.764;2022-07-29T09:01:27;11.13;;;8.97;;
2173;SDS011;1093;51.424;11.764;2022-07-29T09:03:55;8.97;;;7.50;;
2173;SDS011;1093;51.424;11.764;2022-07-29T09:06:26;17.03;;;10.37;;
2173;SDS011;1093;51.424;11.764;2022-07-29T09:08:58;18.10;;;11.53;;
2173;SDS011;1093;51.424;11.764;2022-07-29T09:11:25;19.00;;;11.20;;
2173;SDS011;1093;51.424;11.764;2022-07-29T09:13:52;16.67;;;13.40;;
2173;SDS011;1093;51.424;11.764;2022-07-29T09:16:19;25.63;;;12.27;;
2173;SDS011;1093;51.424;11.764;2022-07-29T09:18:47;18.73;;;11.93;;
2173;SDS011;1093;51.424;11.764;2022-07-29T09:21:14;10.83;;;9.73;;
2173;SDS011;1093;51.424;11.764;2022-07-29T09:24:01;16.87;;;11.40;;
2173;SDS011;1093;51.424;11.764;2022-07-29T09:26:30;18.80;;;12.67;;
2173;SDS011;1093;51.424;11.764;2022-07-29T09:28:58;17.13;;;11.73;;
2173;SDS011;1093;51.424;11.764;2022-07-29T09:34:13;14.37;;;10.77;;
2173;SDS011;1093;51.424;11.764;2022-07-29T09:36:42;17.90;;;12.37;;
2173;SDS011;1093;51.424;11.764;2022-07-29T09:39:10;16.53;;;10.77;;
2173;SDS011;1093;51.424;11.764;2022-07-29T09:41:44;19.30;;;10.60;;
2173;SDS011;1093;51.424;11.764;2022-07-29T09:44:12;10.60;;;8.83;;
2173;SDS011;1093;51.424;11.764;2022-07-29T09:46:40;13.07;;;9.27;;
2173;SDS011;1093;51.424;11.764;2022-07-29T09:49:08;13.47;;;9.40;;
2173;SDS011;1093;51.424;11.764;2022-07-29T09:51:37;18.87;;;9.93;;
2173;SDS011;1093;51.424;11.764;2022-07-29T09:56:47;11.70;;;8.10;;
2173;SDS011;1093;51.424;11.764;2022-07-29T09:59:14;14.67;;;7.43;;
2173;SDS011;1093;51.424;11.764;2022-07-29T10:01:41;7.77;;;6.17;;
2173;SDS011;1093;51.424;11.764;2022-07-29T10:04:07;8.10;;;6.30;;
2173;SDS011;1093;51.424;11.764;2022-07-29T10:06:37;9.77;;;6.20;;
2173;SDS011;1093;51.424;11.764;2022-07-29T10:09:21;11.30;;;5.83;;
2173;SDS011;1093;51.424;11.764;2022-07-29T10:12:01;11.80;;;5.60;;
2173;SDS011;1093;51.424;11.764;2022-07-29T10:14:33;9.83;;;4.67;;
2173;SDS011;1093;51.424;11.764;2022-07-29T10:17:02;7.97;;;5.63;;
2173;SDS011;1093;51.424;11.764;2022-07-29T10:19:30;7.20;;;5.03;;
2173;SDS011;1093;51.424;11.764;2022-07-29T10:22:00;7.67;;;4.93;;
2173;SDS011;1093;51.424;11.764;2022-07-29T10:24:28;9.77;;;4.67;;
2173;SDS011;1093;51.424;11.764;2022-07-29T10:26:57;6.37;;;5.00;;
2173;SDS011;1093;51.424;11.764;2022-07-29T10:29:26;5.27;;;4.40;;
2173;SDS011;1093;51.424;11.764;2022-07-29T10:31:57;6.03;;;5.30;;
2173;SDS011;1093;51.424;11.764;2022-07-29T10:34:36;5.60;;;4.30;;
2173;SDS011;1093;51.424;11.764;2022-07-29T10:37:22;7.17;;;4.70;;
2173;SDS011;1093;51.424;11.764;2022-07-29T10:40:00;12.07;;;4.87;;
2173;SDS011;1093;51.424;11.764;2022-07-29T10:42:54;13.57;;;5.23;;
2173;SDS011;1093;51.424;11.764;2022-07-29T10:45:25;8.87;;;4.57;;
2173;SDS011;1093;51.424;11.764;2022-07-29T10:48:02;6.80;;;5.20;;
2173;SDS011;1093;51.424;11.764;2022-07-29T10:50:44;11.73;;;4.37;;
2173;SDS011;1093;51.424;11.764;2022-07-29T10:53:20;5.40;;;4.07;;
2173;SDS011;1093;51.424;11.764;2022-07-29T10:55:48;4.47;;;4.07;;
2173;SDS011;1093;51.424;11.764;2022-07-29T10:58:17;7.07;;;4.17;;
2173;SDS011;1093;51.424;11.764;2022-07-29T11:00:46;4.43;;;3.73;;
2173;SDS011;1093;51.424;11.764;2022-07-29T11:06:08;6.83;;;3.87;;
2173;SDS011;1093;51.424;11.764;2022-07-29T11:08:37;9.83;;;4.43;;
2173;SDS011;1093;51.424;11.764;2022-07-29T11:14:01;7.77;;;4.70;;
2173;SDS011;1093;51.424;11.764;2022-07-29T11:16:57;7.60;;;5.10;;
2173;SDS011;1093;51.424;11.764;2022-07-29T11:19:24;7.00;;;5.23;;
2173;SDS011;1093;51.424;11.764;2022-07-29T11:21:51;6.57;;;5.20;;
2173;SDS011;1093;51.424;11.764;2022-07-29T11:24:20;8.80;;;5.63;;
2173;SDS011;1093;51.424;11.764;2022-07-29T11:29:39;9.07;;;5.23;;
2173;SDS011;1093;51.424;11.764;2022-07-29T11:32:14;6.27;;;4.87;;
2173;SDS011;1093;51.424;11.764;2022-07-29T11:34:44;9.00;;;4.30;;
2173;SDS011;1093;51.424;11.764;2022-07-29T11:37:18;5.60;;;4.40;;
2173;SDS011;1093;51.424;11.764;2022-07-29T11:40:07;9.17;;;4.50;;
2173;SDS011;1093;51.424;11.764;2022-07-29T11:42:42;9.00;;;4.23;;
2173;SDS011;1093;51.424;11.764;2022-07-29T11:45:12;8.57;;;4.80;;
2173;SDS011;1093;51.424;11.764;2022-07-29T11:47:42;7.00;;;5.80;;
2173;SDS011;1093;51.424;11.764;2022-07-29T11:50:16;5.30;;;4.80;;
2173;SDS011;1093;51.424;11.764;2022-07-29T11:52:52;8.83;;;4.33;;
2173;SDS011;1093;51.424;11.764;2022-07-29T11:55:21;8.47;;;4.20;;
2173;SDS011;1093;51.424;11.764;2022-07-29T11:57:49;5.93;;;3.93;;
2173;SDS011;1093;51.424;11.764;2022-07-29T12:00:21;11.57;;;5.57;;
2173;SDS011;1093;51.424;11.764;2022-07-29T12:02:50;8.40;;;4.13;;
2173;SDS011;1093;51.424;11.764;2022-07-29T12:05:18;4.13;;;3.70;;
2173;SDS011;1093;51.424;11.764;2022-07-29T12:07:45;5.70;;;3.60;;
2173;SDS011;1093;51.424;11.764;2022-07-29T12:10:13;5.53;;;3.73;;
2173;SDS011;1093;51.424;11.764;2022-07-29T12:12:41;5.23;;;3.70;;
2173;SDS011;1093;51.424;11.764;2022-07-29T12:15:14;5.37;;;4.10;;
2173;SDS011;1093;51.424;11.764;2022-07-29T12:17:45;3.90;;;3.50;;
2173;SDS011;1093;51.424;11.764;2022-07-29T12:20:13;4.23;;;3.40;;
2173;SDS011;1093;51.424;11.764;2022-07-29T12:22:47;7.43;;;3.70;;
2173;SDS011;1093;51.424;11.764;2022-07-29T12:25:14;8.87;;;4.00;;
2173;SDS011;1093;51.424;11.764;2022-07-29T12:27:43;5.30;;;3.80;;
2173;SDS011;1093;51.424;11.764;2022-07-29T12:30:12;4.10;;;3.70;;
2173;SDS011;1093;51.424;11.764;2022-07-29T12:32:41;4.40;;;4.00;;
2173;SDS011;1093;51.424;11.764;2022-07-29T12:35:10;4.60;;;4.07;;
2173;SDS011;1093;51.424;11.764;2022-07-29T12:37:40;4.83;;;3.90;;
2173;SDS011;1093;51.424;11.764;2022-07-29T12:40:08;6.13;;;3.83;;
2173;SDS011;1093;51.424;11.764;2022-07-29T12:42:36;4.00;;;3.60;;
2173;SDS011;1093;51.424;11.764;2022-07-29T12:45:05;4.63;;;3.60;;
2173;SDS011;1093;51.424;11.764;2022-07-29T12:47:33;7.67;;;3.50;;
2173;SDS011;1093;51.424;11.764;2022-07-29T12:50:16;7.83;;;3.33;;
2173;SDS011;1093;51.424;11.764;2022-07-29T12:52:44;7.60;;;3.87;;
2173;SDS011;1093;51.424;11.764;2022-07-29T12:55:11;8.23;;;3.70;;
2173;SDS011;1093;51.424;11.764;2022-07-29T12:57:44;4.40;;;3.60;;
2173;SDS011;1093;51.424;11.764;2022-07-29T13:00:14;5.93;;;4.03;;
2173;SDS011;1093;51.424;11.764;2022-07-29T13:02:42;6.10;;;3.57;;
2173;SDS011;1093;51.424;11.764;2022-07-29T13:05:09;3.90;;;3.00;;
2173;SDS011;1093;51.424;11.764;2022-07-29T13:07:38;6.17;;;4.10;;
2173;SDS011;1093;51.424;11.764;2022-07-29T13:10:12;4.83;;;3.40;;
2173;SDS011;1093;51.424;11.764;2022-07-29T13:15:31;5.60;;;3.23;;
2173;SDS011;1093;51.424;11.764;2022-07-29T13:17:58;5.17;;;3.60;;
2173;SDS011;1093;51.424;11.764;2022-07-29T13:20:26;5.63;;;3.57;;
2173;SDS011;1093;51.424;11.764;2022-07-29T13:22:55;5.77;;;3.57;;
2173;SDS011;1093;51.424;11.764;2022-07-29T13:25:23;4.73;;;3.47;;
2173;SDS011;1093;51.424;11.764;2022-07-29T13:27:50;7.00;;;3.47;;
2173;SDS011;1093;51.424;11.764;2022-07-29T13:30:19;10.93;;;3.40;;
2173;SDS011;1093;51.424;11.764;2022-07-29T13:32:48;6.73;;;3.57;;
2173;SDS011;1093;51.424;11.764;2022-07-29T13:35:15;4.40;;;3.80;;
2173;SDS011;1093;51.424;11.764;2022-07-29T13:37:41;10.20;;;3.90;;
2173;SDS011;1093;51.424;11.764;2022-07-29T13:40:08;7.60;;;3.97;;
2173;SDS011;1093;51.424;11.764;2022-07-29T13:42:36;5.00;;;3.93;;
2173;SDS011;1093;51.424;11.764;2022-07-29T13:45:04;4.53;;;3.70;;
2173;SDS011;1093;51.424;11.764;2022-07-29T13:47:32;4.83;;;3.80;;
2173;SDS011;1093;51.424;11.764;2022-07-29T13:50:01;7.27;;;3.40;;
2173;SDS011;1093;51.424;11.764;2022-07-29T13:52:28;3.57;;;3.37;;
2173;SDS011;1093;51.424;11.764;2022-07-29T13:54:56;7.30;;;4.00;;
2173;SDS011;1093;51.424;11.764;2022-07-29T13:57:22;4.00;;;3.57;;
2173;SDS011;1093;51.424;11.764;2022-07-29T13:59:49;10.10;;;4.30;;
2173;SDS011;1093;51.424;11.764;2022-07-29T14:02:17;6.40;;;3.60;;
2173;SDS011;1093;51.424;11.764;2022-07-29T14:04:43;6.53;;;4.50;;
2173;SDS011;1093;51.424;11.764;2022-07-29T14:07:12;10.13;;;4.50;;
2173;SDS011;1093;51.424;11.764;2022-07-29T14:09:38;7.97;;;4.40;;
2173;SDS011;1093;51.424;11.764;2022-07-29T14:12:05;4.70;;;4.20;;
2173;SDS011;1093;51.424;11.764;2022-07-29T14:14:32;9.50;;;4.10;;
2173;SDS011;1093;51.424;11.764;2022-07-29T14:17:01;3.97;;;3.27;;
2173;SDS011;1093;51.424;11.764;2022-07-29T14:19:28;4.43;;;3.20;;
2173;SDS011;1093;51.424;11.764;2022-07-29T14:21:56;4.30;;;3.67;;
2173;SDS011;1093;51.424;11.764;2022-07-29T14:24:24;4.40;;;4.00;;
2173;SDS011;1093;51.424;11.764;2022-07-29T14:26:51;8.20;;;3.60;;
2173;SDS011;1093;51.424;11.764;2022-07-29T14:29:18;6.00;;;3.70;;
2173;SDS011;1093;51.424;11.764;2022-07-29T14:31:45;5.70;;;3.90;;
2173;SDS011;1093;51.424;11.764;2022-07-29T14:34:11;7.33;;;3.90;;
2173;SDS011;1093;51.424;11.764;2022-07-29T14:36:40;8.83;;;3.93;;
2173;SDS011;1093;51.424;11.764;2022-07-29T14:39:07;4.33;;;3.93;;
2173;SDS011;1093;51.424;11.764;2022-07-29T14:41:35;6.53;;;4.03;;
2173;SDS011;1093;51.424;11.764;2022-07-29T14:44:03;4.90;;;3.77;;
2173;SDS011;1093;51.424;11.764;2022-07-29T14:46:30;7.20;;;4.10;;
2173;SDS011;1093;51.424;11.764;2022-07-29T14:48:57;6.20;;;4.17;;
2173;SDS011;1093;51.424;11.764;2022-07-29T14:51:23;4.50;;;3.73;;
2173;SDS011;1093;51.424;11.764;2022-07-29T14:53:50;4.83;;;3.43;;
2173;SDS011;1093;51.424;11.764;2022-07-29T14:56:17;17.53;;;4.17;;
2173;SDS011;1093;51.424;11.764;2022-07-29T14:58:45;5.57;;;4.47;;
2173;SDS011;1093;51.424;11.764;2022-07-29T15:01:12;4.60;;;3.70;;
2173;SDS011;1093;51.424;11.764;2022-07-29T15:03:39;3.70;;;3.33;;
2173;SDS011;1093;51.424;11.764;2022-07-29T15:06:06;4.73;;;4.00;;
2173;SDS011;1093;51.424;11.764;2022-07-29T15:08:33;5.97;;;4.10;;
2173;SDS011;1093;51.424;11.764;2022-07-29T15:10:59;4.17;;;3.47;;
2173;SDS011;1093;51.424;11.764;2022-07-29T15:13:26;8.40;;;4.07;;
2173;SDS011;1093;51.424;11.764;2022-07-29T15:15:54;5.00;;;3.80;;
2173;SDS011;1093;51.424;11.764;2022-07-29T15:18:21;7.20;;;4.17;;
2173;SDS011;1093;51.424;11.764;2022-07-29T15:20:48;7.27;;;4.40;;
2173;SDS011;1093;51.424;11.764;2022-07-29T15:23:14;4.27;;;3.83;;
2173;SDS011;1093;51.424;11.764;2022-07-29T15:25:41;4.30;;;3.90;;